West Falls, New York
Current Conditions -  °F | °C
As of 12:54 PM on Friday 31 Oct 2014 (Local Time) from KBUF Reporting Station
Light Rain Light Rain  
Wind Chill: 44°   Ceiling: 3200
Heat Index: 47°   Visibility: 10mi
Dew Point: 38°   Wind: 7mph
Humidity: 71%   Direction: 200°SSW
Pressure: 29.91"   Gusts: NA
Location:  42.7°N, 78.68°W
Report Text: KBUF 311654Z 20006KT 10SM -RA BKN032 BKN042 OVC055 08/03 A2991 RMK AO2 SLP134 P0000 T00830033
Loading
Personal Weather Stations






























Interactive Weather Map New forecast layout! Learn more

10-Day Weather Forecast

Advertisements
Track Severe Weather on mobile